createdAt,value
2019-02-24T00:00:48.912Z,1003.76
2019-02-24T00:01:49.115Z,1003.76
2019-02-24T00:02:48.954Z,1003.81
2019-02-24T00:03:48.952Z,1003.76
2019-02-24T00:04:48.930Z,1003.71
2019-02-24T00:05:48.950Z,1003.73
2019-02-24T00:06:48.972Z,1003.74
2019-02-24T00:07:48.974Z,1003.69
2019-02-24T00:08:49.003Z,1003.67
2019-02-24T00:09:48.975Z,1003.69
2019-02-24T00:10:48.993Z,1003.66
2019-02-24T00:11:49.006Z,1003.65
2019-02-24T00:12:49.028Z,1003.58
2019-02-24T00:13:49.006Z,1003.53
2019-02-24T00:14:49.042Z,1003.57
2019-02-24T00:15:49.034Z,1003.54
2019-02-24T00:16:49.025Z,1003.56
2019-02-24T00:17:49.049Z,1003.64
2019-02-24T00:18:49.051Z,1003.64
2019-02-24T00:19:49.046Z,1003.72
2019-02-24T00:20:49.058Z,1003.68
2019-02-24T00:21:49.095Z,1003.65
2019-02-24T00:22:49.081Z,1003.67
2019-02-24T00:23:49.079Z,1003.66
2019-02-24T00:24:49.074Z,1003.60
2019-02-24T00:25:49.085Z,1003.68
2019-02-24T00:26:49.109Z,1003.67
2019-02-24T00:27:48.900Z,1003.71
2019-02-24T00:28:48.913Z,1003.65
2019-02-24T00:29:49.155Z,1003.63
2019-02-24T00:30:48.975Z,1003.67
2019-02-24T00:31:48.928Z,1003.74
2019-02-24T00:32:48.949Z,1003.81
2019-02-24T00:33:48.966Z,1003.78
2019-02-24T00:34:48.957Z,1003.78
2019-02-24T00:35:48.960Z,1003.77
2019-02-24T00:36:49.014Z,1003.81
2019-02-24T00:37:48.999Z,1003.78
2019-02-24T00:38:48.988Z,1003.80
2019-02-24T00:39:49.006Z,1003.80
2019-02-24T00:40:48.973Z,1003.79
2019-02-24T00:41:49.408Z,1003.84
2019-02-24T00:42:48.996Z,1003.81
2019-02-24T00:43:49.010Z,1003.91
2019-02-24T00:44:49.051Z,1003.83
2019-02-24T00:45:49.091Z,1003.88
2019-02-24T00:46:49.033Z,1003.85
2019-02-24T00:47:49.048Z,1003.91
2019-02-24T00:48:49.105Z,1003.87
2019-02-24T00:49:49.079Z,1003.88
2019-02-24T00:50:49.072Z,1003.86
2019-02-24T00:51:49.101Z,1003.98
2019-02-24T00:52:49.074Z,1003.99
2019-02-24T00:53:49.119Z,1003.99
2019-02-24T00:54:49.104Z,1003.98
2019-02-24T00:55:49.173Z,1003.94
2019-02-24T00:56:49.159Z,1003.94
2019-02-24T00:57:48.950Z,1003.90
2019-02-24T00:58:48.917Z,1003.89
2019-02-24T00:59:48.909Z,1003.95
2019-02-24T01:00:48.920Z,1003.97
2019-02-24T01:01:49.146Z,1003.87
2019-02-24T01:02:48.963Z,1003.90
2019-02-24T01:03:48.946Z,1003.82
2019-02-24T01:04:48.967Z,1003.77
2019-02-24T01:05:48.995Z,1003.73
2019-02-24T01:06:48.993Z,1003.82
2019-02-24T01:07:49.012Z,1003.83
2019-02-24T01:08:49.021Z,1003.83
2019-02-24T01:09:49.039Z,1003.84
2019-02-24T01:10:49.003Z,1003.82
2019-02-24T01:11:49.008Z,1003.78
2019-02-24T01:12:49.056Z,1003.83
2019-02-24T01:13:49.053Z,1003.79
2019-02-24T01:14:49.064Z,1003.81
2019-02-24T01:15:49.071Z,1003.67
2019-02-24T01:16:49.068Z,1003.73
2019-02-24T01:17:49.049Z,1003.74
2019-02-24T01:18:49.098Z,1003.73
2019-02-24T01:19:49.116Z,1003.73
2019-02-24T01:20:49.096Z,1003.77
2019-02-24T01:21:49.091Z,1003.74
2019-02-24T01:22:49.098Z,1003.77
2019-02-24T01:23:49.110Z,1003.84
2019-02-24T01:24:49.110Z,1003.77
2019-02-24T01:25:49.111Z,1003.77
2019-02-24T01:26:49.144Z,1003.76
2019-02-24T01:27:48.941Z,1003.81
2019-02-24T01:28:48.979Z,1003.84
2019-02-24T01:29:48.934Z,1003.84
2019-02-24T01:30:48.989Z,1003.84
2019-02-24T01:31:48.975Z,1003.77
2019-02-24T01:32:49.040Z,1003.82
2019-02-24T01:33:49.004Z,1003.73
2019-02-24T01:34:48.977Z,1003.77
2019-02-24T01:35:48.993Z,1003.73
2019-02-24T01:36:48.998Z,1003.71
2019-02-24T01:37:48.998Z,1003.73
2019-02-24T01:38:49.011Z,1003.71
2019-02-24T01:39:49.046Z,1003.70
2019-02-24T01:40:49.227Z,1003.72
2019-02-24T01:41:49.040Z,1003.69
2019-02-24T01:42:49.052Z,1003.75
2019-02-24T01:43:49.075Z,1003.74
2019-02-24T01:44:49.070Z,1003.74
2019-02-24T01:45:49.065Z,1003.72
2019-02-24T01:46:49.080Z,1003.73
2019-02-24T01:47:49.094Z,1003.74
2019-02-24T01:48:49.090Z,1003.74
2019-02-24T01:49:49.091Z,1003.73
2019-02-24T01:50:49.100Z,1003.74
2019-02-24T01:51:49.107Z,1003.67
2019-02-24T01:52:49.149Z,1003.72
2019-02-24T01:53:49.115Z,1003.69
2019-02-24T01:54:49.122Z,1003.66
2019-02-24T01:55:49.134Z,1003.71
2019-02-24T01:56:49.154Z,1003.63
2019-02-24T01:57:48.959Z,1003.66
2019-02-24T01:58:48.939Z,1003.69
2019-02-24T01:59:48.986Z,1003.68
2019-02-24T02:00:48.955Z,1003.67
2019-02-24T02:01:48.964Z,1003.66
2019-02-24T02:02:49.007Z,1003.68
2019-02-24T02:03:49.012Z,1003.64
2019-02-24T02:04:49.015Z,1003.63
2019-02-24T02:05:49.000Z,1003.58
2019-02-24T02:06:49.004Z,1003.64
2019-02-24T02:07:49.010Z,1003.63
2019-02-24T02:08:49.053Z,1003.61
2019-02-24T02:09:49.045Z,1003.68
2019-02-24T02:10:49.060Z,1003.66
2019-02-24T02:11:49.052Z,1003.60
2019-02-24T02:12:49.051Z,1003.54
2019-02-24T02:13:49.069Z,1003.60
2019-02-24T02:14:49.110Z,1003.49
2019-02-24T02:15:49.097Z,1003.54
2019-02-24T02:16:49.069Z,1003.58
2019-02-24T02:17:49.097Z,1003.53
2019-02-24T02:18:49.350Z,1003.60
2019-02-24T02:19:49.109Z,1003.59
2019-02-24T02:20:49.103Z,1003.59
2019-02-24T02:21:49.120Z,1003.61
2019-02-24T02:22:49.121Z,1003.62
2019-02-24T02:23:49.143Z,1003.62
2019-02-24T02:24:49.145Z,1003.57
2019-02-24T02:25:49.158Z,1003.53
2019-02-24T02:26:49.189Z,1003.61
2019-02-24T02:27:48.986Z,1003.62
2019-02-24T02:28:48.960Z,1003.59
2019-02-24T02:29:48.981Z,1003.61
2019-02-24T02:30:48.968Z,1003.51
2019-02-24T02:31:49.012Z,1003.49
2019-02-24T02:32:49.417Z,1003.44
2019-02-24T02:33:49.004Z,1003.48
2019-02-24T02:34:49.239Z,1003.44
2019-02-24T02:35:49.041Z,1003.49
2019-02-24T02:36:49.037Z,1003.49
2019-02-24T02:37:49.233Z,1003.52
2019-02-24T02:38:49.251Z,1003.51
2019-02-24T02:39:49.262Z,1003.54
2019-02-24T02:40:49.277Z,1003.54
2019-02-24T02:41:49.286Z,1003.46
2019-02-24T02:42:49.312Z,1003.47
2019-02-24T02:43:49.488Z,1003.45
2019-02-24T02:44:49.287Z,1003.39
2019-02-24T02:45:49.294Z,1003.43
2019-02-24T02:46:49.284Z,1003.36
2019-02-24T02:47:49.302Z,1003.44
2019-02-24T02:48:49.328Z,1003.47
2019-02-24T02:49:49.332Z,1003.40
2019-02-24T02:50:49.377Z,1003.43
2019-02-24T02:51:49.371Z,1003.38
2019-02-24T02:52:49.345Z,1003.37
2019-02-24T02:53:49.344Z,1003.34
2019-02-24T02:54:49.355Z,1003.39
2019-02-24T02:55:49.365Z,1003.40
2019-02-24T02:56:49.433Z,1003.37
2019-02-24T02:57:49.420Z,1003.41
2019-02-24T02:58:54.318Z,1003.39
2019-02-24T02:59:49.389Z,1003.36
2019-02-24T03:00:49.424Z,1003.37
2019-02-24T03:01:49.435Z,1003.42
2019-02-24T03:02:49.448Z,1003.41
2019-02-24T03:03:49.471Z,1003.41
2019-02-24T03:04:49.451Z,1003.40
2019-02-24T03:05:49.446Z,1003.36
2019-02-24T03:06:49.444Z,1003.37
2019-02-24T03:07:49.451Z,1003.34
2019-02-24T03:08:49.485Z,1003.37
2019-02-24T03:09:49.485Z,1003.37
2019-02-24T03:10:49.503Z,1003.38
2019-02-24T03:11:49.287Z,1003.35
2019-02-24T03:12:49.298Z,1003.39
2019-02-24T03:13:49.301Z,1003.42
2019-02-24T03:14:49.322Z,1003.36
2019-02-24T03:15:49.343Z,1003.38
2019-02-24T03:16:49.332Z,1003.43
2019-02-24T03:17:49.319Z,1003.44
2019-02-24T03:18:49.355Z,1003.44
2019-02-24T03:19:49.357Z,1003.40
2019-02-24T03:20:49.357Z,1003.28
2019-02-24T03:21:49.345Z,1003.31
2019-02-24T03:22:49.368Z,1003.27
2019-02-24T03:23:49.358Z,1003.30
2019-02-24T03:24:49.372Z,1003.29
2019-02-24T03:25:49.384Z,1003.31
2019-02-24T03:26:49.410Z,1003.32
2019-02-24T03:27:49.424Z,1003.33
2019-02-24T03:28:49.408Z,1003.32
2019-02-24T03:29:49.406Z,1003.33
2019-02-24T03:30:49.462Z,1003.33
2019-02-24T03:31:49.475Z,1003.38
2019-02-24T03:32:49.434Z,1003.33
2019-02-24T03:33:49.503Z,1003.31
2019-02-24T03:34:49.462Z,1003.32
2019-02-24T03:35:49.673Z,1003.35
2019-02-24T03:36:49.447Z,1003.30
2019-02-24T03:37:49.501Z,1003.34
2019-02-24T03:38:49.492Z,1003.37
2019-02-24T03:39:49.485Z,1003.34
2019-02-24T03:40:49.509Z,1003.32
2019-02-24T03:41:49.323Z,1003.26
2019-02-24T03:42:49.323Z,1003.22
2019-02-24T03:43:49.296Z,1003.33
2019-02-24T03:44:49.334Z,1003.31
2019-02-24T03:45:49.337Z,1003.25
2019-02-24T03:46:49.344Z,1003.20
2019-02-24T03:47:49.331Z,1003.20
2019-02-24T03:48:49.360Z,1003.30
2019-02-24T03:49:49.354Z,1003.30
2019-02-24T03:50:49.422Z,1003.31
2019-02-24T03:51:49.372Z,1003.29
2019-02-24T03:52:49.404Z,1003.24
2019-02-24T03:53:49.378Z,1003.28
2019-02-24T03:54:49.386Z,1003.28
2019-02-24T03:55:49.389Z,1003.26
2019-02-24T03:56:49.406Z,1003.23
2019-02-24T03:57:49.449Z,1003.29
2019-02-24T03:58:49.438Z,1003.20
2019-02-24T03:59:49.416Z,1003.14
2019-02-24T04:00:49.429Z,1003.17
2019-02-24T04:01:49.457Z,1003.23
2019-02-24T04:02:49.449Z,1003.17
2019-02-24T04:03:49.683Z,1003.08
2019-02-24T04:04:49.482Z,1003.03
2019-02-24T04:05:49.481Z,1002.98
2019-02-24T04:06:49.481Z,1002.99
2019-02-24T04:07:49.472Z,1003.00
2019-02-24T04:08:49.517Z,1002.97
2019-02-24T04:09:49.514Z,1002.93
2019-02-24T04:10:49.521Z,1002.96
2019-02-24T04:11:49.295Z,1002.90
2019-02-24T04:12:49.322Z,1002.98
2019-02-24T04:13:49.357Z,1002.99
2019-02-24T04:14:49.344Z,1003.04
2019-02-24T04:15:49.380Z,1003.07
2019-02-24T04:16:49.339Z,1002.97
2019-02-24T04:17:49.369Z,1002.98
2019-02-24T04:18:49.347Z,1003.00
2019-02-24T04:19:49.374Z,1003.05
2019-02-24T04:20:49.401Z,1002.94
2019-02-24T04:21:49.382Z,1002.97
2019-02-24T04:22:49.383Z,1003.03
2019-02-24T04:23:49.385Z,1002.99
2019-02-24T04:24:49.453Z,1003.04
2019-02-24T04:25:49.397Z,1003.09
2019-02-24T04:26:49.420Z,1003.05
2019-02-24T04:27:49.463Z,1003.10
2019-02-24T04:28:49.432Z,1003.04
2019-02-24T04:29:49.443Z,1002.97
2019-02-24T04:30:49.446Z,1002.98
2019-02-24T04:31:49.449Z,1002.97
2019-02-24T04:32:49.465Z,1002.89
2019-02-24T04:33:49.487Z,1002.89
2019-02-24T04:34:49.500Z,1002.89
2019-02-24T04:35:49.461Z,1002.84
2019-02-24T04:36:49.469Z,1002.89
2019-02-24T04:37:49.513Z,1002.86
2019-02-24T04:38:49.518Z,1002.84
2019-02-24T04:39:49.515Z,1002.84
2019-02-24T04:40:49.714Z,1002.78
2019-02-24T04:41:49.568Z,1002.68
2019-02-24T04:42:49.331Z,1002.71
2019-02-24T04:43:49.331Z,1002.72
2019-02-24T04:44:49.365Z,1002.78
2019-02-24T04:45:49.391Z,1002.76
2019-02-24T04:46:49.383Z,1002.78
2019-02-24T04:47:49.362Z,1002.74
2019-02-24T04:48:49.357Z,1002.82
2019-02-24T04:49:49.396Z,1002.78
2019-02-24T04:50:49.383Z,1002.77
2019-02-24T04:51:49.426Z,1002.75
2019-02-24T04:52:49.410Z,1002.80
2019-02-24T04:53:49.420Z,1002.75
2019-02-24T04:54:49.403Z,1002.74
2019-02-24T04:55:49.429Z,1002.79
2019-02-24T04:56:49.449Z,1002.79
2019-02-24T04:57:49.491Z,1002.74
2019-02-24T04:58:49.433Z,1002.67
2019-02-24T04:59:49.444Z,1002.76
2019-02-24T05:00:49.480Z,1002.73
2019-02-24T05:01:49.472Z,1002.74
2019-02-24T05:02:49.479Z,1002.78
2019-02-24T05:03:49.499Z,1002.71
2019-02-24T05:04:49.542Z,1002.69
2019-02-24T05:05:49.496Z,1002.71
2019-02-24T05:06:49.526Z,1002.69
2019-02-24T05:07:49.532Z,1002.72
2019-02-24T05:08:49.516Z,1002.68
2019-02-24T05:09:49.531Z,1002.73
2019-02-24T05:10:49.555Z,1002.61
2019-02-24T05:11:49.351Z,1002.63
2019-02-24T05:12:49.342Z,1002.57
2019-02-24T05:13:49.372Z,1002.61
2019-02-24T05:14:49.385Z,1002.63
2019-02-24T05:15:49.402Z,1002.60
2019-02-24T05:16:49.363Z,1002.59
2019-02-24T05:17:49.396Z,1002.56
2019-02-24T05:18:49.389Z,1002.64
2019-02-24T05:19:49.404Z,1002.58
2019-02-24T05:20:49.436Z,1002.60
2019-02-24T05:21:49.424Z,1002.49
2019-02-24T05:22:49.413Z,1002.53
2019-02-24T05:23:49.414Z,1002.48
2019-02-24T05:24:49.429Z,1002.44
2019-02-24T05:25:49.457Z,1002.49
2019-02-24T05:26:49.459Z,1002.53
2019-02-24T05:27:49.494Z,1002.53
2019-02-24T05:28:49.471Z,1002.53
2019-02-24T05:29:49.495Z,1002.56
2019-02-24T05:30:49.478Z,1002.53
2019-02-24T05:31:49.507Z,1002.51
2019-02-24T05:32:49.485Z,1002.56
2019-02-24T05:33:49.499Z,1002.62
2019-02-24T05:34:49.496Z,1002.59
2019-02-24T05:35:49.509Z,1002.57
2019-02-24T05:36:49.537Z,1002.55
2019-02-24T05:37:49.564Z,1002.60
2019-02-24T05:38:49.778Z,1002.52
2019-02-24T05:39:49.534Z,1002.48
2019-02-24T05:40:49.540Z,1002.55
2019-02-24T05:41:49.545Z,1002.49
2019-02-24T05:42:49.749Z,1002.45
2019-02-24T05:43:49.576Z,1002.46
2019-02-24T05:44:49.610Z,1002.51
2019-02-24T05:45:49.571Z,1002.44
2019-02-24T05:46:49.598Z,1002.52
2019-02-24T05:47:49.632Z,1002.48
2019-02-24T05:48:49.601Z,1002.50
2019-02-24T05:49:49.652Z,1002.52
2019-02-24T05:50:49.643Z,1002.52
2019-02-24T05:51:49.630Z,1002.57
2019-02-24T05:52:49.627Z,1002.47
2019-02-24T05:53:49.644Z,1002.51
2019-02-24T05:54:51.732Z,1002.47
2019-02-24T05:55:49.654Z,1002.49
2019-02-24T05:56:49.719Z,1002.54
2019-02-24T05:57:49.663Z,1002.59
2019-02-24T05:58:49.681Z,1002.56
2019-02-24T05:59:55.232Z,1002.49
2019-02-24T06:00:49.671Z,1002.57
2019-02-24T06:01:49.728Z,1002.53
2019-02-24T06:02:49.748Z,1002.56
2019-02-24T06:03:49.706Z,1002.53
2019-02-24T06:04:49.722Z,1002.57
2019-02-24T06:05:49.741Z,1002.55
2019-02-24T06:06:49.724Z,1002.50
2019-02-24T06:07:49.774Z,1002.56
2019-02-24T06:08:49.748Z,1002.53
2019-02-24T06:09:49.779Z,1002.50
2019-02-24T06:10:49.782Z,1002.52
2019-02-24T06:11:49.974Z,1002.49
2019-02-24T06:12:49.580Z,1002.46
2019-02-24T06:13:49.594Z,1002.45
2019-02-24T06:14:49.799Z,1002.42
2019-02-24T06:15:49.602Z,1002.35
2019-02-24T06:16:49.621Z,1002.35
2019-02-24T06:17:49.628Z,1002.33
2019-02-24T06:18:49.664Z,1002.39
2019-02-24T06:19:49.643Z,1002.38
2019-02-24T06:20:49.649Z,1002.39
2019-02-24T06:21:49.652Z,1002.40
2019-02-24T06:22:49.650Z,1002.37
2019-02-24T06:23:49.654Z,1002.35
2019-02-24T06:24:49.697Z,1002.38
2019-02-24T06:25:49.880Z,1002.35
2019-02-24T06:26:49.700Z,1002.40
2019-02-24T06:27:49.680Z,1002.38
2019-02-24T06:28:49.686Z,1002.39
2019-02-24T06:29:49.711Z,1002.42
2019-02-24T06:30:49.714Z,1002.47
2019-02-24T06:31:49.771Z,1002.43
2019-02-24T06:32:49.720Z,1002.41
2019-02-24T06:33:49.744Z,1002.34
2019-02-24T06:34:49.748Z,1002.39
2019-02-24T06:35:49.744Z,1002.35
2019-02-24T06:36:49.781Z,1002.31
2019-02-24T06:37:49.764Z,1002.35
2019-02-24T06:38:49.778Z,1002.34
2019-02-24T06:39:49.792Z,1002.37
2019-02-24T06:40:49.801Z,1002.33
2019-02-24T06:41:49.587Z,1002.27
2019-02-24T06:42:49.615Z,1002.28
2019-02-24T06:43:49.613Z,1002.22
2019-02-24T06:44:49.617Z,1002.13
2019-02-24T06:45:49.659Z,1002.20
2019-02-24T06:46:49.613Z,1002.19
2019-02-24T06:47:49.622Z,1002.11
2019-02-24T06:48:49.640Z,1002.13
2019-02-24T06:49:49.638Z,1002.14
2019-02-24T06:50:49.649Z,1002.17
2019-02-24T06:51:49.671Z,1002.20
2019-02-24T06:52:49.679Z,1002.26
2019-02-24T06:53:49.656Z,1002.20
2019-02-24T06:54:49.718Z,1002.20
2019-02-24T06:55:49.697Z,1002.22
2019-02-24T06:56:50.090Z,1002.26
2019-02-24T06:57:49.702Z,1002.19
2019-02-24T06:58:49.706Z,1002.20
2019-02-24T06:59:49.728Z,1002.28
2019-02-24T07:00:49.738Z,1002.33
2019-02-24T07:01:49.731Z,1002.34
2019-02-24T07:02:49.741Z,1002.38
2019-02-24T07:03:49.955Z,1002.42
2019-02-24T07:04:49.763Z,1002.60
2019-02-24T07:05:49.755Z,1002.61
2019-02-24T07:06:49.760Z,1002.58
2019-02-24T07:07:49.777Z,1002.67
2019-02-24T07:08:49.775Z,1002.64
2019-02-24T07:09:49.786Z,1002.64
2019-02-24T07:10:49.796Z,1002.59
2019-02-24T07:11:49.670Z,1002.61
2019-02-24T07:12:49.605Z,1002.68
2019-02-24T07:13:49.611Z,1002.61
2019-02-24T07:14:49.643Z,1002.62
2019-02-24T07:15:49.640Z,1002.64
2019-02-24T07:16:49.651Z,1002.64
2019-02-24T07:17:49.687Z,1002.61
2019-02-24T07:18:49.678Z,1002.59
2019-02-24T07:19:49.644Z,1002.53
2019-02-24T07:20:49.679Z,1002.48
2019-02-24T07:21:49.673Z,1002.43
2019-02-24T07:22:49.697Z,1002.43
2019-02-24T07:23:49.680Z,1002.32
2019-02-24T07:24:49.725Z,1002.44
2019-02-24T07:25:49.740Z,1002.38
2019-02-24T07:26:49.700Z,1002.40
2019-02-24T07:27:49.724Z,1002.39
2019-02-24T07:28:49.712Z,1002.38
2019-02-24T07:29:49.753Z,1002.32
2019-02-24T07:30:49.740Z,1002.31
2019-02-24T07:31:49.739Z,1002.41
2019-02-24T07:32:49.772Z,1002.35
2019-02-24T07:33:49.748Z,1002.35
2019-02-24T07:34:49.766Z,1002.37
2019-02-24T07:35:49.799Z,1002.48
2019-02-24T07:36:49.805Z,1002.43
2019-02-24T07:37:49.765Z,1002.38
2019-02-24T07:38:49.784Z,1002.38
2019-02-24T07:39:49.820Z,1002.46
2019-02-24T07:40:49.845Z,1002.55
2019-02-24T07:41:50.030Z,1002.55
2019-02-24T07:42:49.635Z,1002.61
2019-02-24T07:43:49.621Z,1002.56
2019-02-24T07:44:49.649Z,1002.52
2019-02-24T07:45:49.649Z,1002.55
2019-02-24T07:46:49.663Z,1002.54
2019-02-24T07:47:49.649Z,1002.55
2019-02-24T07:48:49.684Z,1002.51
2019-02-24T07:49:49.670Z,1002.46
2019-02-24T07:50:49.666Z,1002.54
2019-02-24T07:51:49.712Z,1002.50
2019-02-24T07:52:49.692Z,1002.47
2019-02-24T07:53:49.674Z,1002.42
2019-02-24T07:54:49.706Z,1002.45
2019-02-24T07:55:49.727Z,1002.44
2019-02-24T07:56:49.734Z,1002.42
2019-02-24T07:57:49.751Z,1002.41
2019-02-24T07:58:49.747Z,1002.42
2019-02-24T07:59:49.765Z,1002.47
2019-02-24T08:00:49.764Z,1002.41
2019-02-24T08:01:49.768Z,1002.45
2019-02-24T08:02:49.784Z,1002.36
2019-02-24T08:03:49.774Z,1002.38
2019-02-24T08:04:49.772Z,1002.31
2019-02-24T08:05:49.774Z,1002.32
2019-02-24T08:06:49.780Z,1002.35
2019-02-24T08:07:49.815Z,1002.38
2019-02-24T08:08:49.847Z,1002.48
2019-02-24T08:09:49.826Z,1002.45
2019-02-24T08:10:50.010Z,1002.41
2019-02-24T08:11:49.651Z,1002.40
2019-02-24T08:12:49.666Z,1002.38
2019-02-24T08:13:49.630Z,1002.28
2019-02-24T08:14:49.685Z,1002.30
2019-02-24T08:15:49.654Z,1002.37
2019-02-24T08:16:49.679Z,1002.40
2019-02-24T08:17:49.915Z,1002.43
2019-02-24T08:18:51.459Z,1002.47
2019-02-24T08:19:49.693Z,1002.37
2019-02-24T08:20:49.722Z,1002.42
2019-02-24T08:21:49.722Z,1002.38
2019-02-24T08:22:49.688Z,1002.37
2019-02-24T08:23:49.730Z,1002.39
2019-02-24T08:24:49.722Z,1002.37
2019-02-24T08:25:49.784Z,1002.38
2019-02-24T08:26:49.786Z,1002.37
2019-02-24T08:27:49.746Z,1002.37
2019-02-24T08:28:49.765Z,1002.39
2019-02-24T08:29:49.757Z,1002.40
2019-02-24T08:30:49.792Z,1002.34
2019-02-24T08:31:49.793Z,1002.41
2019-02-24T08:32:49.796Z,1002.46
2019-02-24T08:33:49.787Z,1002.43
2019-02-24T08:34:49.817Z,1002.35
2019-02-24T08:35:49.774Z,1002.38
2019-02-24T08:36:49.803Z,1002.41
2019-02-24T08:37:49.827Z,1002.36
2019-02-24T08:38:50.044Z,1002.37
2019-02-24T08:39:49.854Z,1002.46
2019-02-24T08:40:49.832Z,1002.38
2019-02-24T08:41:49.632Z,1002.40
2019-02-24T08:42:49.657Z,1002.35
2019-02-24T08:43:49.656Z,1002.39
2019-02-24T08:44:49.675Z,1002.32
2019-02-24T08:45:49.866Z,1002.40
2019-02-24T08:46:49.690Z,1002.33
2019-02-24T08:47:49.698Z,1002.27
2019-02-24T08:48:49.689Z,1002.32
2019-02-24T08:49:49.731Z,1002.35
2019-02-24T08:50:49.700Z,1002.37
2019-02-24T08:51:49.717Z,1002.43
2019-02-24T08:52:49.704Z,1002.40
2019-02-24T08:53:49.725Z,1002.41
2019-02-24T08:54:49.796Z,1002.40
2019-02-24T08:55:49.986Z,1002.37
2019-02-24T08:56:49.746Z,1002.34
2019-02-24T08:57:49.760Z,1002.32
2019-02-24T08:58:49.784Z,1002.28
2019-02-24T08:59:49.809Z,1002.26
2019-02-24T09:00:51.294Z,1002.32
2019-02-24T09:01:49.782Z,1002.33
2019-02-24T09:02:49.784Z,1002.26
2019-02-24T09:03:49.798Z,1002.23
2019-02-24T09:04:49.812Z,1002.16
2019-02-24T09:05:50.264Z,1002.14
2019-02-24T09:06:49.836Z,1002.12
2019-02-24T09:07:49.832Z,1002.12
2019-02-24T09:08:49.827Z,1002.20
2019-02-24T09:09:49.830Z,1002.15
2019-02-24T09:10:49.877Z,1002.16
2019-02-24T09:11:49.880Z,1002.16
2019-02-24T09:12:49.845Z,1002.15
2019-02-24T09:13:49.861Z,1002.16
2019-02-24T09:14:49.871Z,1002.14
2019-02-24T09:15:49.922Z,1002.19
2019-02-24T09:16:49.948Z,1002.17
2019-02-24T09:17:49.914Z,1002.15
2019-02-24T09:18:49.893Z,1002.20
2019-02-24T09:19:49.924Z,1002.13
2019-02-24T09:20:49.942Z,1002.14
2019-02-24T09:21:49.936Z,1002.21
2019-02-24T09:22:49.962Z,1002.24
2019-02-24T09:23:49.965Z,1002.26
2019-02-24T09:24:49.973Z,1002.20
2019-02-24T09:25:49.965Z,1002.18
2019-02-24T09:26:50.016Z,1002.14
2019-02-24T09:27:49.998Z,1002.20
2019-02-24T09:28:50.917Z,1002.07
2019-02-24T09:29:49.962Z,1002.09
2019-02-24T09:30:50.210Z,1002.19
2019-02-24T09:31:50.001Z,1002.17
2019-02-24T09:32:50.017Z,1002.19
2019-02-24T09:33:50.238Z,1002.16
2019-02-24T09:34:50.251Z,1002.26
2019-02-24T09:35:51.665Z,1002.16
2019-02-24T09:36:50.077Z,1002.15
2019-02-24T09:37:50.060Z,1002.12
2019-02-24T09:38:50.055Z,1002.16
2019-02-24T09:39:50.040Z,1002.19
2019-02-24T09:40:50.119Z,1002.17
2019-02-24T09:41:50.108Z,1002.15
2019-02-24T09:42:50.089Z,1002.18
2019-02-24T09:43:50.116Z,1002.14
2019-02-24T09:44:50.327Z,1002.19
2019-02-24T09:45:50.101Z,1002.15
2019-02-24T09:46:50.129Z,1002.22
2019-02-24T09:47:50.109Z,1002.21
2019-02-24T09:48:50.159Z,1002.19
2019-02-24T09:49:50.152Z,1002.25
2019-02-24T09:50:50.191Z,1002.31
2019-02-24T09:51:52.266Z,1002.22
2019-02-24T09:52:50.179Z,1002.22
2019-02-24T09:53:50.163Z,1002.29
2019-02-24T09:54:50.172Z,1002.28
2019-02-24T09:55:50.181Z,1002.21
2019-02-24T09:56:50.230Z,1002.29
2019-02-24T09:57:50.208Z,1002.28
2019-02-24T09:58:50.216Z,1002.29
2019-02-24T09:59:50.215Z,1002.37
2019-02-24T10:00:50.218Z,1002.35
2019-02-24T10:01:50.240Z,1002.38
2019-02-24T10:02:50.285Z,1002.41
2019-02-24T10:03:50.224Z,1002.36
2019-02-24T10:04:50.257Z,1002.36
2019-02-24T10:05:50.238Z,1002.31
2019-02-24T10:06:50.258Z,1002.40
2019-02-24T10:07:50.058Z,1002.37
2019-02-24T10:08:50.079Z,1002.41
2019-02-24T10:09:50.091Z,1002.44
2019-02-24T10:10:50.286Z,1002.41
2019-02-24T10:11:50.098Z,1002.36
2019-02-24T10:12:50.110Z,1002.39
2019-02-24T10:13:51.226Z,1002.39
2019-02-24T10:14:50.195Z,1002.38
2019-02-24T10:15:50.127Z,1002.41
2019-02-24T10:16:50.182Z,1002.39
2019-02-24T10:17:50.151Z,1002.39
2019-02-24T10:18:50.164Z,1002.42
2019-02-24T10:19:50.181Z,1002.30
2019-02-24T10:20:50.222Z,1002.32
2019-02-24T10:21:50.147Z,1002.33
2019-02-24T10:22:50.162Z,1002.32
2019-02-24T10:23:50.187Z,1002.24
2019-02-24T10:24:50.188Z,1002.23
2019-02-24T10:25:50.239Z,1002.19
2019-02-24T10:26:50.226Z,1002.17
2019-02-24T10:27:50.205Z,1002.16
2019-02-24T10:28:50.241Z,1002.19
2019-02-24T10:29:50.238Z,1002.23
2019-02-24T10:30:50.224Z,1002.22
2019-02-24T10:31:50.271Z,1002.21
2019-02-24T10:32:50.264Z,1002.19
2019-02-24T10:33:50.258Z,1002.20
2019-02-24T10:34:50.311Z,1002.14
2019-02-24T10:35:50.270Z,1002.13
2019-02-24T10:36:50.290Z,1002.10
2019-02-24T10:37:50.106Z,1002.12
2019-02-24T10:38:50.085Z,1002.07
2019-02-24T10:39:50.112Z,1002.08
2019-02-24T10:40:50.311Z,1002.02
2019-02-24T10:41:50.099Z,1002.11
2019-02-24T10:42:50.135Z,1002.10
2019-02-24T10:43:50.154Z,1002.14
2019-02-24T10:44:50.122Z,1002.12
2019-02-24T10:45:50.156Z,1002.01
2019-02-24T10:46:50.168Z,1001.98
2019-02-24T10:47:50.157Z,1001.93
2019-02-24T10:48:50.228Z,1001.94
2019-02-24T10:49:50.187Z,1001.91
2019-02-24T10:50:50.174Z,1001.92
2019-02-24T10:51:50.165Z,1001.98
2019-02-24T10:52:50.192Z,1001.98
2019-02-24T10:53:50.217Z,1001.96
2019-02-24T10:54:50.227Z,1001.98
2019-02-24T10:55:50.263Z,1001.82
2019-02-24T10:56:50.242Z,1001.86
2019-02-24T10:57:50.430Z,1001.80
2019-02-24T10:58:50.238Z,1001.81
2019-02-24T10:59:50.249Z,1001.76
2019-02-24T11:00:50.250Z,1001.82
2019-02-24T11:01:50.272Z,1001.70
2019-02-24T11:02:50.259Z,1001.67
2019-02-24T11:03:50.266Z,1001.68
2019-02-24T11:04:50.281Z,1001.67
2019-02-24T11:05:50.299Z,1001.69
2019-02-24T11:06:50.553Z,1001.67
2019-02-24T11:07:50.313Z,1001.74
2019-02-24T11:08:50.323Z,1001.67
2019-02-24T11:09:50.315Z,1001.70
2019-02-24T11:10:50.516Z,1001.72
2019-02-24T11:11:50.343Z,1001.70
2019-02-24T11:12:50.400Z,1001.69
2019-02-24T11:13:50.365Z,1001.64
2019-02-24T11:14:50.337Z,1001.61
2019-02-24T11:15:50.375Z,1001.61
2019-02-24T11:16:50.350Z,1001.52
2019-02-24T11:17:50.389Z,1001.53
2019-02-24T11:18:50.396Z,1001.50
2019-02-24T11:19:50.411Z,1001.50
2019-02-24T11:20:50.364Z,1001.57
2019-02-24T11:21:50.393Z,1001.52
2019-02-24T11:22:50.412Z,1001.51
2019-02-24T11:23:50.429Z,1001.55
2019-02-24T11:24:50.428Z,1001.53
2019-02-24T11:25:50.435Z,1001.54
2019-02-24T11:26:50.441Z,1001.52
2019-02-24T11:27:50.442Z,1001.55
2019-02-24T11:28:50.480Z,1001.53
2019-02-24T11:29:50.466Z,1001.53
2019-02-24T11:30:50.487Z,1001.52
2019-02-24T11:31:50.482Z,1001.60
2019-02-24T11:32:50.499Z,1001.50
2019-02-24T11:33:50.508Z,1001.46
2019-02-24T11:34:50.486Z,1001.47
2019-02-24T11:35:50.768Z,1001.38
2019-02-24T11:36:50.721Z,1001.45
2019-02-24T11:37:50.764Z,1001.41
2019-02-24T11:38:50.728Z,1001.41
2019-02-24T11:39:50.730Z,1001.48
2019-02-24T11:40:50.726Z,1001.45
2019-02-24T11:41:50.783Z,1001.41
2019-02-24T11:42:50.761Z,1001.39
2019-02-24T11:43:50.769Z,1001.41
2019-02-24T11:44:50.765Z,1001.42
2019-02-24T11:45:50.784Z,1001.44
2019-02-24T11:46:50.791Z,1001.48
2019-02-24T11:47:50.803Z,1001.52
2019-02-24T11:48:50.874Z,1001.49
2019-02-24T11:49:50.801Z,1001.43
2019-02-24T11:50:50.790Z,1001.43
2019-02-24T11:51:50.861Z,1001.40
2019-02-24T11:52:50.840Z,1001.39
2019-02-24T11:53:50.861Z,1001.42
2019-02-24T11:54:50.886Z,1001.39
2019-02-24T11:55:50.839Z,1001.37
2019-02-24T11:56:50.850Z,1001.40
2019-02-24T11:57:50.887Z,1001.42
2019-02-24T11:58:50.903Z,1001.38
2019-02-24T11:59:50.960Z,1001.41
2019-02-24T12:00:50.907Z,1001.37
2019-02-24T12:01:50.918Z,1001.35
2019-02-24T12:02:50.917Z,1001.34
2019-02-24T12:03:50.902Z,1001.33
2019-02-24T12:04:50.944Z,1001.29
2019-02-24T12:05:50.940Z,1001.34